createdAt,value
2022-08-22T00:00:34.328Z,68.92089844
2022-08-22T00:01:34.752Z,69.12231445
2022-08-22T00:02:35.280Z,69.22607422
2022-08-22T00:02:45.720Z,62.01171875
2022-08-22T00:02:54.354Z,66.1315918
2022-08-22T00:02:59.391Z,68.52416992
2022-08-22T00:03:01.923Z,65.4296875
2022-08-22T00:03:09.502Z,58.76464844
2022-08-22T00:03:35.653Z,69.12231445
2022-08-22T00:04:36.165Z,69.22607422
2022-08-22T00:05:36.548Z,69.32373047
2022-08-22T00:06:37.489Z,69.32373047
2022-08-22T00:07:37.942Z,69.12231445
2022-08-22T00:08:38.442Z,68.62182617
2022-08-22T00:09:38.925Z,68.42041016
2022-08-22T00:10:39.353Z,68.62182617
2022-08-22T00:11:39.759Z,68.42041016
2022-08-22T00:12:40.277Z,68.62182617
2022-08-22T00:13:40.709Z,68.92089844
2022-08-22T00:14:41.190Z,68.82324219
2022-08-22T00:15:43.552Z,68.52416992
2022-08-22T00:16:42.729Z,68.62182617
2022-08-22T00:17:43.218Z,69.0246582
2022-08-22T00:18:43.785Z,69.22607422
2022-08-22T00:19:44.249Z,69.22607422
2022-08-22T00:20:44.618Z,69.32373047
2022-08-22T00:21:45.013Z,68.92089844
2022-08-22T00:22:45.509Z,68.21899414
2022-08-22T00:23:45.979Z,67.52319336
2022-08-22T00:24:46.459Z,67.32177734
2022-08-22T00:25:46.845Z,66.82128906
2022-08-22T00:26:48.180Z,67.21801758
2022-08-22T00:27:48.723Z,67.21801758
2022-08-22T00:28:49.203Z,67.15087891
2022-08-22T00:29:50.515Z,67.35229492
2022-08-22T00:30:50.915Z,67.44995117
2022-08-22T00:31:51.340Z,67.55371094
2022-08-22T00:32:51.844Z,67.55371094
2022-08-22T00:33:52.272Z,67.75512695
2022-08-22T00:34:52.730Z,67.44995117
2022-08-22T00:35:53.132Z,67.15087891
2022-08-22T00:36:54.231Z,67.44995117
2022-08-22T00:37:54.726Z,67.55371094
2022-08-22T00:38:55.221Z,67.44995117
2022-08-22T00:39:56.605Z,67.55371094
2022-08-22T00:41:27.162Z,67.55371094
2022-08-22T00:42:29.562Z,67.65136719
2022-08-22T00:43:28.227Z,67.65136719
2022-08-22T00:44:28.654Z,67.8527832
2022-08-22T00:45:29.077Z,67.95654297
2022-08-22T00:46:30.487Z,67.8527832
2022-08-22T00:47:30.959Z,67.65136719
2022-08-22T00:48:31.434Z,67.75512695
2022-08-22T00:49:31.858Z,67.65136719
2022-08-22T00:50:33.229Z,67.55371094
2022-08-22T00:51:33.608Z,67.8527832
2022-08-22T00:52:34.046Z,67.95654297
2022-08-22T00:53:34.532Z,67.8527832
2022-08-22T00:54:34.946Z,67.8527832
2022-08-22T00:55:35.435Z,67.41943359
2022-08-22T00:56:36.485Z,67.32177734
2022-08-22T00:57:36.898Z,67.32177734
2022-08-22T00:58:37.449Z,67.21801758
2022-08-22T00:59:37.926Z,67.21801758
2022-08-22T01:00:38.420Z,67.41943359
2022-08-22T01:01:38.834Z,67.41943359
2022-08-22T01:02:39.261Z,67.41943359
2022-08-22T01:03:39.730Z,67.71850586
2022-08-22T01:04:40.228Z,67.75512695
2022-08-22T01:05:40.786Z,67.55371094
2022-08-22T01:06:41.985Z,67.25463867
2022-08-22T01:07:42.509Z,67.35229492
2022-08-22T01:08:42.947Z,67.55371094
2022-08-22T01:09:43.435Z,67.21801758
2022-08-22T01:10:43.987Z,67.25463867
2022-08-22T01:11:44.365Z,67.25463867
2022-08-22T01:12:44.878Z,67.44995117
2022-08-22T01:13:45.299Z,67.55371094
2022-08-22T01:14:45.725Z,67.55371094
2022-08-22T01:15:46.998Z,67.41943359
2022-08-22T01:16:47.409Z,67.65136719
2022-08-22T01:17:47.884Z,67.71850586
2022-08-22T01:18:49.227Z,67.71850586
2022-08-22T01:19:49.728Z,67.62084961
2022-08-22T01:20:50.178Z,67.41943359
2022-08-22T01:21:50.536Z,67.32177734
2022-08-22T01:22:51.020Z,67.25463867
2022-08-22T01:23:51.466Z,67.21801758
2022-08-22T01:24:51.922Z,66.91894531
2022-08-22T01:25:52.368Z,66.91894531
2022-08-22T01:26:53.493Z,66.82128906
2022-08-22T01:27:53.949Z,66.91894531
2022-08-22T01:28:54.395Z,66.7175293
2022-08-22T01:29:54.835Z,67.02270508
2022-08-22T01:30:55.268Z,66.7175293
2022-08-22T01:32:26.225Z,66.61987305
2022-08-22T01:33:26.689Z,66.82128906
2022-08-22T01:34:27.123Z,67.02270508
2022-08-22T01:35:27.559Z,67.12036133
2022-08-22T01:36:28.042Z,67.21801758
2022-08-22T01:37:28.414Z,67.21801758
2022-08-22T01:38:29.775Z,67.12036133
2022-08-22T01:39:30.208Z,67.12036133
2022-08-22T01:40:30.641Z,67.12036133
2022-08-22T01:41:31.108Z,67.21801758
2022-08-22T01:42:31.485Z,67.52319336
2022-08-22T01:43:58.579Z,67.52319336
2022-08-22T01:44:32.417Z,67.52319336
2022-08-22T01:45:33.543Z,67.62084961
2022-08-22T01:46:33.983Z,68.02368164
2022-08-22T01:47:36.571Z,68.05419922
2022-08-22T01:48:35.670Z,68.12133789
2022-08-22T01:49:36.109Z,68.02368164
2022-08-22T01:50:36.632Z,68.12133789
2022-08-22T01:51:37.081Z,68.21899414
2022-08-22T01:52:37.490Z,68.52416992
2022-08-22T01:53:38.007Z,68.52416992
2022-08-22T01:54:38.511Z,68.72558594
2022-08-22T01:55:38.953Z,69.05517578
2022-08-22T01:56:40.029Z,69.0246582
2022-08-22T01:57:40.414Z,69.05517578
2022-08-22T01:58:40.932Z,69.0246582
2022-08-22T01:59:42.428Z,68.82324219
2022-08-22T02:00:42.066Z,68.92089844
2022-08-22T02:01:42.530Z,69.0246582
2022-08-22T02:02:42.920Z,69.12231445
2022-08-22T02:03:43.376Z,69.2565918
2022-08-22T02:04:43.852Z,69.45800781
2022-08-22T02:05:44.368Z,69.55566406
2022-08-22T02:06:45.531Z,69.55566406
2022-08-22T02:07:45.923Z,69.55566406
2022-08-22T02:08:46.358Z,69.75708008
2022-08-22T02:09:46.899Z,69.86083984
2022-08-22T02:10:47.419Z,69.65942383
2022-08-22T02:11:47.888Z,69.55566406
2022-08-22T02:12:48.300Z,69.65942383
2022-08-22T02:13:48.758Z,69.65942383
2022-08-22T02:14:49.351Z,69.2565918
2022-08-22T02:15:50.528Z,69.2565918
2022-08-22T02:16:51.525Z,69.05517578
2022-08-22T02:17:51.962Z,68.95751953
2022-08-22T02:18:52.385Z,68.85375977
2022-08-22T02:19:52.889Z,68.95751953
2022-08-22T02:20:53.349Z,68.95751953
2022-08-22T02:21:53.891Z,69.05517578
2022-08-22T02:22:54.246Z,69.15893555
2022-08-22T02:23:55.514Z,68.95751953
2022-08-22T02:25:25.693Z,69.05517578
2022-08-22T02:26:26.143Z,69.05517578
2022-08-22T02:27:27.247Z,68.95751953
2022-08-22T02:28:27.683Z,69.05517578
2022-08-22T02:29:28.102Z,69.15893555
2022-08-22T02:30:28.753Z,69.35424805
2022-08-22T02:31:29.059Z,69.35424805
2022-08-22T02:32:29.549Z,69.45800781
2022-08-22T02:33:29.959Z,69.45800781
2022-08-22T02:34:30.387Z,69.35424805
2022-08-22T02:35:30.902Z,69.2565918
2022-08-22T02:36:31.401Z,69.2565918
2022-08-22T02:37:32.837Z,69.45800781
2022-08-22T02:38:33.195Z,69.55566406
2022-08-22T02:39:33.620Z,69.65942383
2022-08-22T02:40:34.105Z,69.55566406
2022-08-22T02:41:34.566Z,69.65942383
2022-08-22T02:42:35.817Z,69.65942383
2022-08-22T02:43:36.202Z,69.75708008
2022-08-22T02:44:36.620Z,69.65942383
2022-08-22T02:45:37.266Z,69.65942383
2022-08-22T02:46:37.624Z,69.65942383
2022-08-22T02:47:38.802Z,69.86083984
2022-08-22T02:48:39.208Z,69.95849609
2022-08-22T02:49:43.730Z,70.15991211
2022-08-22T02:50:40.190Z,70.25756836
2022-08-22T02:51:40.649Z,70.15991211
2022-08-22T02:52:41.137Z,70.05615234
2022-08-22T02:53:41.751Z,70.05615234
2022-08-22T02:54:42.203Z,70.15991211
2022-08-22T02:55:42.653Z,70.25756836
2022-08-22T02:56:43.098Z,69.95849609
2022-08-22T02:57:44.372Z,70.15991211
2022-08-22T02:58:44.771Z,70.3918457
2022-08-22T02:59:45.206Z,70.49560547
2022-08-22T03:00:45.790Z,70.69091797
2022-08-22T03:01:46.142Z,70.79467773
2022-08-22T03:02:46.636Z,70.99609375
2022-08-22T03:03:47.059Z,71.19750977
2022-08-22T03:04:47.479Z,70.89233398
2022-08-22T03:05:47.977Z,71.09375
2022-08-22T03:06:48.447Z,71.29516602
2022-08-22T03:07:49.791Z,71.29516602
2022-08-22T03:08:51.002Z,71.49658203
2022-08-22T03:09:50.658Z,71.59423828
2022-08-22T03:10:51.089Z,71.49658203
2022-08-22T03:11:51.587Z,71.19750977
2022-08-22T03:12:55.775Z,71.29516602
2022-08-22T03:13:52.505Z,71.39282227
2022-08-22T03:14:52.989Z,71.49658203
2022-08-22T03:15:53.440Z,71.39282227
2022-08-22T03:16:53.948Z,70.99609375
2022-08-22T03:18:25.534Z,71.19750977
2022-08-22T03:19:25.943Z,70.99609375
2022-08-22T03:20:26.390Z,71.09375
2022-08-22T03:21:26.912Z,71.19750977
2022-08-22T03:22:27.400Z,71.39282227
2022-08-22T03:23:27.837Z,71.39282227
2022-08-22T03:24:28.260Z,71.49658203
2022-08-22T03:25:29.244Z,71.39282227
2022-08-22T03:26:29.743Z,71.19750977
2022-08-22T03:27:33.282Z,71.02661133
2022-08-22T03:28:31.043Z,71.02661133
2022-08-22T03:29:32.220Z,71.13037109
2022-08-22T03:30:32.686Z,71.22802734
2022-08-22T03:31:33.129Z,71.22802734
2022-08-22T03:32:33.645Z,71.33178711
2022-08-22T03:33:34.092Z,71.33178711
2022-08-22T03:34:34.546Z,71.33178711
2022-08-22T03:35:35.009Z,71.22802734
2022-08-22T03:36:35.468Z,71.13037109
2022-08-22T03:37:36.568Z,71.22802734
2022-08-22T03:38:37.068Z,71.22802734
2022-08-22T03:39:37.512Z,71.22802734
2022-08-22T03:40:37.885Z,71.33178711
2022-08-22T03:41:38.356Z,71.52709961
2022-08-22T03:42:38.867Z,71.52709961
2022-08-22T03:43:39.387Z,71.63085938
2022-08-22T03:44:39.778Z,71.76513672
2022-08-22T03:45:40.214Z,71.76513672
2022-08-22T03:46:41.365Z,71.76513672
2022-08-22T03:47:42.536Z,71.76513672
2022-08-22T03:48:43.051Z,71.96655273
2022-08-22T03:49:43.500Z,71.96655273
2022-08-22T03:50:43.915Z,71.86279297
2022-08-22T03:51:44.373Z,71.76513672
2022-08-22T03:52:44.919Z,71.52709961
2022-08-22T03:53:45.421Z,71.63085938
2022-08-22T03:54:45.844Z,71.63085938
2022-08-22T03:55:46.298Z,71.33178711
2022-08-22T03:56:46.791Z,71.26464844
2022-08-22T03:57:47.755Z,71.46606445
2022-08-22T03:58:48.250Z,71.66137695
2022-08-22T03:59:48.674Z,71.5637207
2022-08-22T04:00:49.181Z,71.36230469
2022-08-22T04:01:49.612Z,71.46606445
2022-08-22T04:02:50.069Z,71.76513672
2022-08-22T04:03:50.626Z,71.5637207
2022-08-22T04:04:51.161Z,71.66137695
2022-08-22T04:05:53.339Z,71.96655273
2022-08-22T04:06:53.760Z,71.86279297
2022-08-22T04:07:52.581Z,71.5637207
2022-08-22T04:08:53.056Z,71.46606445
2022-08-22T04:10:24.184Z,71.46606445
2022-08-22T04:11:24.654Z,71.66137695
2022-08-22T04:12:25.149Z,71.5637207
2022-08-22T04:13:25.655Z,71.26464844
2022-08-22T04:14:26.139Z,71.26464844
2022-08-22T04:15:26.566Z,71.36230469
2022-08-22T04:16:27.046Z,71.76513672
2022-08-22T04:17:27.552Z,71.66137695
2022-08-22T04:18:28.779Z,71.46606445
2022-08-22T04:19:29.321Z,71.5637207
2022-08-22T04:20:29.789Z,71.76513672
2022-08-22T04:21:30.230Z,71.76513672
2022-08-22T04:22:30.830Z,71.46606445
2022-08-22T04:23:31.289Z,71.36230469
2022-08-22T04:24:31.819Z,71.89941406
2022-08-22T04:25:33.053Z,72.19848633
2022-08-22T04:26:33.529Z,72.30224609
2022-08-22T04:27:34.648Z,72.10083008
2022-08-22T04:28:35.084Z,71.6003418
2022-08-22T04:29:35.562Z,71.6003418
2022-08-22T04:30:36.741Z,71.49658203
2022-08-22T04:31:37.250Z,71.49658203
2022-08-22T04:32:37.684Z,71.69799805
2022-08-22T04:33:38.159Z,72.10083008
2022-08-22T04:34:38.664Z,72.39990234
2022-08-22T04:35:39.125Z,72.50366211
2022-08-22T04:36:39.600Z,72.19848633
2022-08-22T04:37:41.057Z,72.39990234
2022-08-22T04:38:41.808Z,72.50366211
2022-08-22T04:39:42.326Z,72.50366211
2022-08-22T04:40:42.729Z,72.50366211
2022-08-22T04:41:43.210Z,72.60131836
2022-08-22T04:42:43.693Z,72.39990234
2022-08-22T04:43:44.184Z,72.53417969
2022-08-22T04:44:44.635Z,72.50366211
2022-08-22T04:45:46.034Z,72.60131836
2022-08-22T04:46:46.662Z,72.70507813
2022-08-22T04:47:54.087Z,72.60131836
2022-08-22T04:48:48.009Z,72.30224609
2022-08-22T04:49:48.510Z,72.10083008
2022-08-22T04:50:48.901Z,72.10083008
2022-08-22T04:51:49.320Z,72.10083008
2022-08-22T04:52:49.750Z,72.19848633
2022-08-22T04:53:50.262Z,72.30224609
2022-08-22T04:54:50.783Z,71.99707031
2022-08-22T04:55:51.176Z,71.89941406
2022-08-22T04:56:51.612Z,71.89941406
2022-08-22T04:57:53.298Z,72.23510742
2022-08-22T04:59:24.740Z,72.33276367
2022-08-22T05:00:25.193Z,72.13134766
2022-08-22T05:01:25.662Z,72.13134766
2022-08-22T05:02:25.987Z,71.93603516
2022-08-22T05:03:26.510Z,71.83227539
2022-08-22T05:04:27.049Z,71.93603516
2022-08-22T05:05:27.563Z,71.93603516
2022-08-22T05:06:27.956Z,72.13134766
2022-08-22T05:07:28.405Z,72.03369141
2022-08-22T05:08:29.821Z,71.83227539
2022-08-22T05:09:30.283Z,71.83227539
2022-08-22T05:10:30.751Z,72.03369141
2022-08-22T05:11:31.132Z,71.33178711
2022-08-22T05:12:33.146Z,71.33178711
2022-08-22T05:13:33.625Z,71.42944336
2022-08-22T05:14:34.089Z,71.73461914
2022-08-22T05:15:34.608Z,71.53320313
2022-08-22T05:16:35.024Z,71.33178711
2022-08-22T05:17:36.377Z,71.33178711
2022-08-22T05:18:36.746Z,71.42944336
2022-08-22T05:19:37.195Z,71.42944336
2022-08-22T05:20:37.681Z,71.33178711
2022-08-22T05:21:38.037Z,71.13037109
2022-08-22T05:22:38.485Z,71.02661133
2022-08-22T05:23:38.920Z,71.13037109
2022-08-22T05:24:39.395Z,70.92895508
2022-08-22T05:25:39.864Z,70.79467773
2022-08-22T05:26:40.274Z,70.69702148
2022-08-22T05:27:41.545Z,70.59326172
2022-08-22T05:28:42.051Z,70.79467773
2022-08-22T05:29:43.274Z,70.79467773
2022-08-22T05:30:43.788Z,70.59326172
2022-08-22T05:31:44.200Z,70.69702148
2022-08-22T05:32:44.704Z,70.19042969
2022-08-22T05:33:45.212Z,70.19042969
2022-08-22T05:34:45.648Z,70.19042969
2022-08-22T05:35:50.144Z,70.3918457
2022-08-22T05:36:46.568Z,70.36132813
2022-08-22T05:37:47.025Z,70.3918457
2022-08-22T05:38:48.317Z,70.66040039
2022-08-22T05:39:48.837Z,70.75805664
2022-08-22T05:40:49.262Z,70.45898438
2022-08-22T05:41:49.670Z,70.25756836
2022-08-22T05:42:50.093Z,70.56274414
2022-08-22T05:43:50.604Z,70.66040039
2022-08-22T05:44:51.114Z,70.25756836
2022-08-22T05:45:51.568Z,70.05615234
2022-08-22T05:46:51.951Z,70.15991211
2022-08-22T05:48:23.622Z,70.15991211
2022-08-22T05:49:24.056Z,70.15991211
2022-08-22T05:50:25.051Z,70.25756836
2022-08-22T05:51:25.502Z,70.25756836
2022-08-22T05:52:25.904Z,70.15991211
2022-08-22T05:53:26.302Z,70.15991211
2022-08-22T05:54:34.459Z,70.36132813
2022-08-22T05:55:27.255Z,70.25756836
2022-08-22T05:56:27.682Z,70.05615234
2022-08-22T05:57:28.069Z,69.95849609
2022-08-22T05:58:29.054Z,69.921875
2022-08-22T05:59:29.556Z,69.62280273
2022-08-22T06:00:30.070Z,69.62280273
2022-08-22T06:01:30.563Z,69.42138672
2022-08-22T06:02:31.574Z,69.42138672
2022-08-22T06:03:31.990Z,69.62280273
2022-08-22T06:04:32.444Z,69.7265625
2022-08-22T06:05:32.929Z,69.921875
2022-08-22T06:06:33.409Z,70.12329102
2022-08-22T06:07:33.777Z,69.921875
2022-08-22T06:08:34.242Z,69.7265625
2022-08-22T06:09:35.552Z,69.79370117
2022-08-22T06:10:35.762Z,69.48852539
2022-08-22T06:11:36.279Z,69.18945313
2022-08-22T06:12:36.664Z,69.09179688
2022-08-22T06:13:37.108Z,68.68896484
2022-08-22T06:14:37.566Z,68.68896484
2022-08-22T06:15:38.034Z,68.78662109
2022-08-22T06:16:38.488Z,68.68896484
2022-08-22T06:17:38.866Z,68.68896484
2022-08-22T06:18:40.094Z,68.68896484
2022-08-22T06:19:40.532Z,68.48754883
2022-08-22T06:20:40.979Z,68.58520508
2022-08-22T06:21:41.728Z,68.68896484
2022-08-22T06:22:42.201Z,68.58520508
2022-08-22T06:23:42.684Z,68.48754883
2022-08-22T06:24:43.118Z,68.58520508
2022-08-22T06:25:43.588Z,68.89038086
2022-08-22T06:26:48.238Z,68.78662109
2022-08-22T06:27:44.433Z,68.65234375
2022-08-22T06:28:54.702Z,68.5546875
2022-08-22T06:29:45.403Z,67.95654297
2022-08-22T06:30:45.838Z,68.25561523
2022-08-22T06:31:46.315Z,67.95654297
2022-08-22T06:32:59.229Z,68.05419922
2022-08-22T06:33:47.173Z,68.35327148
2022-08-22T06:34:47.636Z,68.25561523
2022-08-22T06:35:48.089Z,68.15185547
2022-08-22T06:36:48.533Z,67.65136719
2022-08-22T06:37:48.939Z,67.8527832
2022-08-22T06:38:50.056Z,67.44995117
2022-08-22T06:39:50.531Z,67.75512695
2022-08-22T06:40:50.988Z,68.05419922
2022-08-22T06:41:51.891Z,67.8527832
2022-08-22T06:43:22.496Z,67.75512695
2022-08-22T06:44:22.973Z,67.35229492
2022-08-22T06:45:23.447Z,67.05322266
2022-08-22T06:46:23.922Z,67.05322266
2022-08-22T06:47:25.103Z,66.91894531
2022-08-22T06:48:25.715Z,66.7175293
2022-08-22T06:49:26.832Z,66.91894531
2022-08-22T06:50:27.305Z,67.02270508
2022-08-22T06:51:27.754Z,67.21801758
2022-08-22T06:52:28.225Z,66.91894531
2022-08-22T06:53:28.638Z,67.02270508
2022-08-22T06:54:33.796Z,66.91894531
2022-08-22T06:55:30.309Z,66.61987305
2022-08-22T06:56:30.766Z,66.61987305
2022-08-22T06:57:31.314Z,66.7175293
2022-08-22T06:58:34.275Z,66.82128906
2022-08-22T06:59:33.098Z,66.7175293
2022-08-22T07:00:33.594Z,66.51611328
2022-08-22T07:01:34.100Z,66.28417969
2022-08-22T07:02:34.555Z,66.38793945
2022-08-22T07:03:35.063Z,66.18652344
2022-08-22T07:04:35.481Z,66.38793945
2022-08-22T07:05:35.978Z,66.38793945
2022-08-22T07:06:36.465Z,66.4855957
2022-08-22T07:07:36.966Z,66.68701172
2022-08-22T07:08:39.234Z,66.78466797
2022-08-22T07:09:38.582Z,66.68701172
2022-08-22T07:10:39.105Z,66.4855957
2022-08-22T07:11:39.569Z,66.08886719
2022-08-22T07:12:39.949Z,65.88745117
2022-08-22T07:13:40.500Z,65.98510742
2022-08-22T07:14:40.938Z,66.18652344
2022-08-22T07:15:41.655Z,66.08886719
2022-08-22T07:16:42.103Z,65.95458984
2022-08-22T07:17:43.343Z,66.05224609
2022-08-22T07:18:44.707Z,66.25366211
2022-08-22T07:19:45.029Z,66.55273438
2022-08-22T07:20:45.537Z,65.65551758
2022-08-22T07:21:46.077Z,65.65551758
2022-08-22T07:22:46.671Z,65.75317383
2022-08-22T07:23:47.077Z,65.95458984
2022-08-22T07:24:47.541Z,65.95458984
2022-08-22T07:25:47.963Z,66.05224609
2022-08-22T07:26:48.420Z,66.05224609
2022-08-22T07:27:49.081Z,66.15600586
2022-08-22T07:28:50.824Z,66.15600586
2022-08-22T07:29:50.218Z,66.65649414
2022-08-22T07:31:21.538Z,66.75415039
2022-08-22T07:32:21.936Z,66.35742188
2022-08-22T07:33:26.949Z,66.15600586
2022-08-22T07:34:22.802Z,65.55175781
2022-08-22T07:35:23.248Z,65.05126953
2022-08-22T07:36:23.676Z,64.9230957
2022-08-22T07:37:24.166Z,64.62402344
2022-08-22T07:38:24.678Z,64.72167969
2022-08-22T07:39:25.837Z,64.72167969
2022-08-22T07:40:26.438Z,65.22216797
2022-08-22T07:41:26.774Z,64.9230957
2022-08-22T07:42:30.275Z,64.9230957
2022-08-22T07:43:28.569Z,65.12451172
2022-08-22T07:44:29.038Z,64.72167969
2022-08-22T07:45:29.514Z,64.52026367
2022-08-22T07:46:29.976Z,64.72167969
2022-08-22T07:47:31.083Z,64.9230957
2022-08-22T07:48:31.574Z,65.42358398
2022-08-22T07:49:32.832Z,65.42358398
2022-08-22T07:50:33.280Z,65.32592773
2022-08-22T07:51:33.704Z,65.52124023
2022-08-22T07:52:34.120Z,64.72167969
2022-08-22T07:53:34.611Z,64.72167969
2022-08-22T07:54:35.046Z,64.82543945
2022-08-22T07:55:35.470Z,64.72167969
2022-08-22T07:56:35.917Z,64.52026367
2022-08-22T07:57:37.297Z,64.42260742
2022-08-22T07:58:37.762Z,64.59350586
2022-08-22T07:59:38.812Z,64.79492188
2022-08-22T08:00:39.207Z,63.79394531
2022-08-22T08:01:39.676Z,63.18969727
2022-08-22T08:02:40.074Z,63.39111328
2022-08-22T08:03:40.513Z,63.49487305
2022-08-22T08:04:40.910Z,63.99536133
2022-08-22T08:05:41.695Z,63.79394531
2022-08-22T08:06:42.104Z,63.49487305
2022-08-22T08:07:43.300Z,63.29345703
2022-08-22T08:08:43.734Z,63.49487305
2022-08-22T08:09:44.807Z,63.29345703
2022-08-22T08:10:45.192Z,63.39111328
2022-08-22T08:11:45.660Z,63.49487305
2022-08-22T08:12:58.022Z,63.79394531
2022-08-22T08:13:46.496Z,63.89160156
2022-08-22T08:14:46.918Z,63.46435547
2022-08-22T08:15:48.280Z,62.96386719
2022-08-22T08:16:48.718Z,62.86010742
2022-08-22T08:17:50.080Z,63.3605957
2022-08-22T08:19:21.820Z,62.76245117
2022-08-22T08:20:22.265Z,62.86010742
2022-08-22T08:21:22.425Z,62.86010742
2022-08-22T08:22:22.839Z,63.3605957
2022-08-22T08:23:23.832Z,63.46435547
2022-08-22T08:24:23.811Z,63.65966797
2022-08-22T08:25:24.205Z,63.26293945
2022-08-22T08:26:24.641Z,62.36572266
2022-08-22T08:27:25.081Z,62.06054688
2022-08-22T08:28:25.499Z,61.56616211
2022-08-22T08:29:26.610Z,62.06054688
2022-08-22T08:30:27.003Z,61.76147461
2022-08-22T08:31:27.443Z,61.53564453
2022-08-22T08:32:27.877Z,61.63330078
2022-08-22T08:33:29.089Z,61.8347168
2022-08-22T08:34:29.559Z,60.73608398
2022-08-22T08:35:29.972Z,60.2355957
2022-08-22T08:36:30.405Z,60.43701172
2022-08-22T08:37:30.860Z,60.33325195
2022-08-22T08:38:31.266Z,60.33325195
2022-08-22T08:39:35.283Z,60.43701172
2022-08-22T08:40:33.091Z,61.23657227
2022-08-22T08:41:33.526Z,59.73510742
2022-08-22T08:42:33.972Z,60.43701172
2022-08-22T08:43:34.413Z,60.53466797
2022-08-22T08:44:34.873Z,60.2355957
2022-08-22T08:45:35.260Z,59.23461914
2022-08-22T08:46:35.709Z,59.33837891
2022-08-22T08:47:36.188Z,59.23461914
2022-08-22T08:48:37.345Z,59.23461914
2022-08-22T08:49:42.228Z,58.63647461
2022-08-22T08:50:39.098Z,58.63647461
2022-08-22T08:51:39.516Z,58.33740234
2022-08-22T08:52:39.956Z,58.93554688
2022-08-22T08:53:42.890Z,58.53881836
2022-08-22T08:54:40.879Z,58.13598633
2022-08-22T08:55:41.237Z,58.63647461
2022-08-22T08:56:42.798Z,58.33740234
2022-08-22T08:57:42.222Z,58.03833008
2022-08-22T08:58:42.631Z,58.13598633
2022-08-22T08:59:44.233Z,58.43505859
2022-08-22T09:00:44.830Z,58.03833008
2022-08-22T09:01:45.310Z,58.03833008
2022-08-22T09:02:45.681Z,58.73413086
2022-08-22T09:03:46.171Z,58.33740234
2022-08-22T09:04:46.755Z,58.03833008
2022-08-22T09:05:47.272Z,57.93457031
2022-08-22T09:06:52.837Z,57.93457031
2022-08-22T09:07:47.925Z,58.03833008
2022-08-22T09:08:50.716Z,58.13598633
2022-08-22T09:09:52.357Z,58.03833008
2022-08-22T09:11:28.385Z,58.23974609
2022-08-22T09:12:20.975Z,58.83789063
2022-08-22T09:13:21.418Z,58.43505859
2022-08-22T09:14:21.843Z,58.83789063
2022-08-22T09:15:22.310Z,58.93554688
2022-08-22T09:16:22.682Z,58.30688477
2022-08-22T09:17:23.084Z,58.50830078
2022-08-22T09:18:24.109Z,59.00878906
2022-08-22T09:19:24.565Z,59.21020508
2022-08-22T09:20:25.892Z,58.41064453
2022-08-22T09:21:27.968Z,57.91015625
2022-08-22T09:22:26.704Z,58.0078125
2022-08-22T09:23:27.123Z,58.60595703
2022-08-22T09:24:27.597Z,58.20922852
2022-08-22T09:25:38.535Z,58.11157227
2022-08-22T09:26:28.493Z,57.40966797
2022-08-22T09:27:28.924Z,57.61108398
2022-08-22T09:28:29.342Z,57.61108398
2022-08-22T09:29:29.744Z,58.50830078
2022-08-22T09:30:30.199Z,58.30688477
2022-08-22T09:31:44.887Z,58.48388672
2022-08-22T09:32:31.067Z,58.97827148
2022-08-22T09:33:31.541Z,58.2824707
2022-08-22T09:34:32.009Z,57.58056641
2022-08-22T09:35:32.451Z,56.88476563
2022-08-22T09:36:32.869Z,57.58056641
2022-08-22T09:37:33.298Z,57.68432617
2022-08-22T09:38:33.746Z,58.38012695
2022-08-22T09:39:35.103Z,58.58154297
2022-08-22T09:40:35.655Z,58.58154297
2022-08-22T09:41:37.126Z,58.67919922
2022-08-22T09:42:37.551Z,57.98339844
2022-08-22T09:43:38.030Z,57.87963867
2022-08-22T09:44:39.761Z,57.75756836
2022-08-22T09:45:38.880Z,57.95288086
2022-08-22T09:46:39.254Z,58.25195313
2022-08-22T09:47:39.678Z,56.95800781
2022-08-22T09:48:40.818Z,58.45336914
2022-08-22T09:49:41.512Z,57.95288086
2022-08-22T09:50:42.878Z,57.75756836
2022-08-22T09:51:43.262Z,57.45849609
2022-08-22T09:52:43.688Z,57.65380859
2022-08-22T09:53:44.150Z,57.05566406
2022-08-22T09:54:44.600Z,57.25708008
2022-08-22T09:55:45.045Z,57.33032227
2022-08-22T09:56:45.469Z,56.43310547
2022-08-22T09:57:45.985Z,56.53076172
2022-08-22T09:58:46.514Z,56.43310547
2022-08-22T09:59:47.617Z,56.73217773
2022-08-22T10:00:48.071Z,57.72705078
2022-08-22T10:01:48.438Z,57.33032227
2022-08-22T10:02:50.337Z,56.92749023
2022-08-22T10:04:19.916Z,56.82983398
2022-08-22T10:05:35.183Z,56.92749023
2022-08-22T10:06:20.795Z,57.52563477
2022-08-22T10:07:21.166Z,57.03125
2022-08-22T10:08:26.104Z,56.23168945
2022-08-22T10:09:26.386Z,56.3293457
2022-08-22T10:10:23.338Z,56.43310547
2022-08-22T10:11:23.952Z,56.82983398
2022-08-22T10:12:25.140Z,56.73217773
2022-08-22T10:13:25.575Z,56.82983398
2022-08-22T10:14:25.972Z,57.52563477
2022-08-22T10:15:26.415Z,56.92749023
2022-08-22T10:16:26.863Z,56.53076172
2022-08-22T10:17:27.239Z,57.00073242
2022-08-22T10:18:27.651Z,56.50634766
2022-08-22T10:19:28.833Z,55.70678711
2022-08-22T10:20:29.860Z,56.60400391
2022-08-22T10:21:30.907Z,55.31005859
2022-08-22T10:22:31.310Z,54.4128418
2022-08-22T10:23:31.733Z,55.01098633
2022-08-22T10:24:32.176Z,54.4128418
2022-08-22T10:25:32.627Z,55.01098633
2022-08-22T10:26:38.433Z,55.90820313
2022-08-22T10:27:33.715Z,54.11376953
2022-08-22T10:28:34.131Z,53.7109375
2022-08-22T10:29:34.573Z,53.21655273
2022-08-22T10:30:35.830Z,52.71606445
2022-08-22T10:31:42.823Z,54.30908203
2022-08-22T10:32:36.668Z,54.30908203
2022-08-22T10:33:37.091Z,55.10864258
2022-08-22T10:34:37.577Z,54.90722656
2022-08-22T10:35:38.083Z,55.38330078
2022-08-22T10:36:38.565Z,54.68139648
2022-08-22T10:37:39.897Z,53.58886719
2022-08-22T10:38:46.239Z,54.38232422
2022-08-22T10:39:40.914Z,54.68139648
2022-08-22T10:40:41.903Z,55.18188477
2022-08-22T10:41:42.418Z,53.49121094
2022-08-22T10:42:42.889Z,54.08325195
2022-08-22T10:43:43.329Z,54.75463867
2022-08-22T10:44:43.792Z,53.16162109
2022-08-22T10:45:44.282Z,52.56958008
2022-08-22T10:46:44.814Z,52.96630859
2022-08-22T10:47:45.228Z,53.36303711
2022-08-22T10:48:46.654Z,53.46069336
2022-08-22T10:49:47.113Z,53.66210938
2022-08-22T10:50:48.800Z,52.86254883
2022-08-22T10:52:19.513Z,52.56958008
2022-08-22T10:53:19.942Z,51.67236328
2022-08-22T10:54:20.374Z,51.86767578
2022-08-22T10:55:20.776Z,51.26953125
2022-08-22T10:56:21.677Z,51.47094727
2022-08-22T10:57:21.825Z,50.45166016